createdAt,value
2017-10-11T00:00:47.637Z,21.299999999999997
2017-10-11T00:02:48.030Z,21.299999999999997
2017-10-11T00:04:47.980Z,21.299999999999997
2017-10-11T00:06:48.005Z,21.299999999999997
2017-10-11T00:08:48.122Z,21.299999999999997
2017-10-11T00:10:48.354Z,21.9
2017-10-11T00:12:48.360Z,21.9
2017-10-11T00:14:48.459Z,20.799999999999997
2017-10-11T00:16:48.814Z,21.9
2017-10-11T00:18:48.871Z,21.9
2017-10-11T00:20:48.985Z,21.9
2017-10-11T00:22:49.154Z,21.299999999999997
2017-10-11T00:24:49.384Z,21.299999999999997
2017-10-11T00:26:49.501Z,21.9
2017-10-11T00:28:49.619Z,21.9
2017-10-11T00:30:49.780Z,21.299999999999997
2017-10-11T00:32:49.915Z,21.9
2017-10-11T00:34:50.105Z,21.299999999999997
2017-10-11T00:36:50.180Z,21.299999999999997
2017-10-11T00:38:50.297Z,20.799999999999997
2017-10-11T00:40:50.442Z,21.9
2017-10-11T00:42:50.633Z,20.799999999999997
2017-10-11T00:44:50.711Z,20.799999999999997
2017-10-11T00:46:50.835Z,21.299999999999997
2017-10-11T00:48:50.978Z,20.799999999999997
2017-10-11T00:50:51.100Z,21.299999999999997
2017-10-11T00:52:51.245Z,21.299999999999997
2017-10-11T00:54:51.361Z,21.299999999999997
2017-10-11T00:56:51.454Z,21.9
2017-10-11T00:58:51.641Z,21.299999999999997
2017-10-11T01:00:51.769Z,20.799999999999997
2017-10-11T01:02:51.866Z,20.799999999999997
2017-10-11T01:04:52.036Z,20.799999999999997
2017-10-11T01:06:52.145Z,21.299999999999997
2017-10-11T01:08:52.317Z,21.299999999999997
2017-10-11T01:10:52.438Z,21.299999999999997
2017-10-11T01:12:52.508Z,21.9
2017-10-11T01:14:52.716Z,20.799999999999997
2017-10-11T01:16:52.813Z,21.299999999999997
2017-10-11T01:18:52.898Z,21.9
2017-10-11T01:20:52.999Z,20.799999999999997
2017-10-11T01:22:53.147Z,21.9
2017-10-11T01:24:53.241Z,21.299999999999997
2017-10-11T01:26:53.520Z,20.799999999999997
2017-10-11T01:28:53.594Z,21.9
2017-10-11T01:30:53.749Z,21.9
2017-10-11T01:32:53.945Z,21.299999999999997
2017-10-11T01:34:54.021Z,21.299999999999997
2017-10-11T01:36:54.110Z,20.799999999999997
2017-10-11T01:38:54.314Z,21.299999999999997
2017-10-11T01:40:54.461Z,20.799999999999997
2017-10-11T01:42:54.493Z,20.799999999999997
2017-10-11T01:44:54.627Z,21.299999999999997
2017-10-11T01:46:54.760Z,20.799999999999997
2017-10-11T01:48:54.844Z,20.799999999999997
2017-10-11T01:50:55.075Z,20.799999999999997
2017-10-11T01:52:55.253Z,21.299999999999997
2017-10-11T01:54:55.352Z,20.799999999999997
2017-10-11T01:56:55.480Z,20.799999999999997
2017-10-11T01:58:55.586Z,21.299999999999997
2017-10-11T02:00:55.716Z,20.799999999999997
2017-10-11T02:02:55.815Z,20.799999999999997
2017-10-11T02:04:55.946Z,20.799999999999997
2017-10-11T02:06:56.083Z,20.799999999999997
2017-10-11T02:08:56.182Z,20.799999999999997
2017-10-11T02:10:56.338Z,20.799999999999997
2017-10-11T02:12:56.628Z,20.799999999999997
2017-10-11T02:14:56.568Z,20.799999999999997
2017-10-11T02:16:56.740Z,21.299999999999997
2017-10-11T02:18:56.841Z,21.299999999999997
2017-10-11T02:20:56.925Z,20.799999999999997
2017-10-11T02:22:57.062Z,20.799999999999997
2017-10-11T02:24:57.229Z,20.799999999999997
2017-10-11T02:26:57.328Z,20.799999999999997
2017-10-11T02:28:58.624Z,20.799999999999997
2017-10-11T02:30:57.647Z,20.799999999999997
2017-10-11T02:32:57.695Z,20.799999999999997
2017-10-11T02:34:57.951Z,20.799999999999997
2017-10-11T02:36:57.991Z,20.799999999999997
2017-10-11T02:38:58.849Z,21.299999999999997
2017-10-11T02:40:58.178Z,21.299999999999997
2017-10-11T02:42:58.346Z,20.799999999999997
2017-10-11T02:44:58.453Z,21.299999999999997
2017-10-11T02:46:58.602Z,20.799999999999997
2017-10-11T02:48:59.562Z,20.799999999999997
2017-10-11T02:50:58.896Z,20.200000000000003
2017-10-11T02:52:58.979Z,20.799999999999997
2017-10-11T02:54:59.068Z,20.799999999999997
2017-10-11T02:56:59.201Z,20.799999999999997
2017-10-11T02:58:59.315Z,20.799999999999997
2017-10-11T03:00:59.435Z,21.299999999999997
2017-10-11T03:02:59.608Z,21.299999999999997
2017-10-11T03:04:59.753Z,21.299999999999997
2017-10-11T03:06:59.926Z,20.799999999999997
2017-10-11T03:09:00.031Z,20.799999999999997
2017-10-11T03:11:00.326Z,20.799999999999997
2017-10-11T03:13:00.311Z,20.799999999999997
2017-10-11T03:15:00.445Z,20.799999999999997
2017-10-11T03:17:01.632Z,20.799999999999997
2017-10-11T03:19:00.720Z,20.799999999999997
2017-10-11T03:21:00.889Z,20.799999999999997
2017-10-11T03:23:00.984Z,20.799999999999997
2017-10-11T03:25:01.234Z,21.299999999999997
2017-10-11T03:27:01.812Z,20.799999999999997
2017-10-11T03:29:01.819Z,20.799999999999997
2017-10-11T03:31:01.713Z,21.299999999999997
2017-10-11T03:33:01.857Z,20.799999999999997
2017-10-11T03:35:02.189Z,20.799999999999997
2017-10-11T03:37:02.446Z,21.299999999999997
2017-10-11T03:39:02.589Z,21.299999999999997
2017-10-11T03:41:02.752Z,20.799999999999997
2017-10-11T03:43:02.851Z,21.299999999999997
2017-10-11T03:45:03.018Z,20.799999999999997
2017-10-11T03:47:03.193Z,20.799999999999997
2017-10-11T03:49:03.270Z,20.799999999999997
2017-10-11T03:51:03.401Z,20.799999999999997
2017-10-11T03:53:03.523Z,20.799999999999997
2017-10-11T03:55:03.712Z,20.799999999999997
2017-10-11T03:57:03.905Z,20.799999999999997
2017-10-11T03:59:03.940Z,20.799999999999997
2017-10-11T04:01:05.034Z,20.799999999999997
2017-10-11T04:03:04.646Z,21.299999999999997
2017-10-11T04:05:04.719Z,20.799999999999997
2017-10-11T04:07:04.876Z,20.799999999999997
2017-10-11T04:09:04.956Z,20.799999999999997
2017-10-11T04:11:05.036Z,20.799999999999997
2017-10-11T04:13:05.223Z,20.799999999999997
2017-10-11T04:15:05.489Z,20.200000000000003
2017-10-11T04:17:05.521Z,20.799999999999997
2017-10-11T04:19:05.661Z,21.299999999999997
2017-10-11T04:21:05.874Z,20.799999999999997
2017-10-11T04:23:05.954Z,20.799999999999997
2017-10-11T04:25:06.206Z,21.299999999999997
2017-10-11T04:27:06.369Z,20.799999999999997
2017-10-11T04:29:06.428Z,20.200000000000003
2017-10-11T04:31:06.573Z,20.200000000000003
2017-10-11T04:33:06.679Z,20.799999999999997
2017-10-11T04:35:06.903Z,19.700000000000003
2017-10-11T04:37:06.935Z,20.799999999999997
2017-10-11T04:39:07.096Z,20.799999999999997
2017-10-11T04:41:07.193Z,20.799999999999997
2017-10-11T04:43:08.415Z,20.799999999999997
2017-10-11T04:45:07.446Z,20.200000000000003
2017-10-11T04:47:07.541Z,20.200000000000003
2017-10-11T04:49:07.679Z,20.200000000000003
2017-10-11T04:51:07.952Z,20.200000000000003
2017-10-11T04:53:08.103Z,20.799999999999997
2017-10-11T04:55:08.225Z,20.200000000000003
2017-10-11T04:57:08.330Z,19.700000000000003
2017-10-11T04:59:08.402Z,20.200000000000003
2017-10-11T05:01:08.598Z,20.799999999999997
2017-10-11T05:03:08.687Z,19.700000000000003
2017-10-11T05:05:08.774Z,20.200000000000003
2017-10-11T05:07:09.016Z,19.700000000000003
2017-10-11T05:09:09.170Z,20.200000000000003
2017-10-11T05:11:09.249Z,20.799999999999997
2017-10-11T05:13:09.411Z,20.799999999999997
2017-10-11T05:15:09.542Z,20.200000000000003
2017-10-11T05:17:09.681Z,20.799999999999997
2017-10-11T05:19:09.897Z,20.200000000000003
2017-10-11T05:21:09.884Z,20.200000000000003
2017-10-11T05:23:10.033Z,20.200000000000003
2017-10-11T05:25:10.313Z,19.700000000000003
2017-10-11T05:27:10.410Z,19.700000000000003
2017-10-11T05:29:10.576Z,19.700000000000003
2017-10-11T05:31:10.784Z,20.799999999999997
2017-10-11T05:33:10.857Z,20.200000000000003
2017-10-11T05:35:10.968Z,20.200000000000003
2017-10-11T05:37:11.139Z,20.799999999999997
2017-10-11T05:39:11.308Z,19.700000000000003
2017-10-11T05:41:11.397Z,20.799999999999997
2017-10-11T05:43:11.555Z,19.700000000000003
2017-10-11T05:45:11.670Z,20.799999999999997
2017-10-11T05:47:11.913Z,20.200000000000003
2017-10-11T05:49:12.015Z,19.700000000000003
2017-10-11T05:51:12.286Z,19.700000000000003
2017-10-11T05:53:12.203Z,19.700000000000003
2017-10-11T05:55:12.377Z,20.200000000000003
2017-10-11T05:57:12.552Z,20.799999999999997
2017-10-11T05:59:12.664Z,19.700000000000003
2017-10-11T06:01:12.979Z,20.799999999999997
2017-10-11T06:03:13.923Z,20.200000000000003
2017-10-11T06:05:13.223Z,20.799999999999997
2017-10-11T06:07:13.374Z,20.799999999999997
2017-10-11T06:09:13.651Z,20.799999999999997
2017-10-11T06:11:13.628Z,20.799999999999997
2017-10-11T06:13:13.743Z,20.799999999999997
2017-10-11T06:15:13.931Z,20.799999999999997
2017-10-11T06:17:14.044Z,20.799999999999997
2017-10-11T06:19:14.249Z,20.200000000000003
2017-10-11T06:21:14.311Z,20.799999999999997
2017-10-11T06:23:14.463Z,19.700000000000003
2017-10-11T06:25:14.537Z,19.700000000000003
2017-10-11T06:27:14.683Z,19.700000000000003
2017-10-11T06:29:14.850Z,20.799999999999997
2017-10-11T06:31:15.220Z,20.799999999999997
2017-10-11T06:33:15.046Z,20.799999999999997
2017-10-11T06:35:15.175Z,20.200000000000003
2017-10-11T06:37:15.302Z,20.799999999999997
2017-10-11T06:39:15.566Z,20.799999999999997
2017-10-11T06:41:15.609Z,20.799999999999997
2017-10-11T06:43:15.729Z,20.799999999999997
2017-10-11T06:45:15.829Z,20.799999999999997
2017-10-11T06:47:16.031Z,20.799999999999997
2017-10-11T06:49:16.091Z,20.799999999999997
2017-10-11T06:51:16.214Z,20.799999999999997
2017-10-11T06:53:16.384Z,21.299999999999997
2017-10-11T06:55:16.471Z,20.799999999999997
2017-10-11T06:57:16.570Z,20.799999999999997
2017-10-11T06:59:16.692Z,21.299999999999997
2017-10-11T07:01:16.867Z,20.799999999999997
2017-10-11T07:03:17.154Z,21.299999999999997
2017-10-11T07:05:17.189Z,20.799999999999997
2017-10-11T07:07:17.272Z,21.299999999999997
2017-10-11T07:09:17.423Z,20.799999999999997
2017-10-11T07:11:17.588Z,21.299999999999997
2017-10-11T07:13:17.683Z,21.9
2017-10-11T07:15:17.852Z,20.799999999999997
2017-10-11T07:17:18.022Z,21.9
2017-10-11T07:19:18.125Z,21.9
2017-10-11T07:21:18.346Z,21.299999999999997
2017-10-11T07:23:18.445Z,21.299999999999997
2017-10-11T07:25:18.508Z,21.299999999999997
2017-10-11T07:27:18.653Z,21.299999999999997
2017-10-11T07:29:18.801Z,21.299999999999997
2017-10-11T07:31:19.013Z,21.299999999999997
2017-10-11T07:33:19.081Z,21.299999999999997
2017-10-11T07:35:19.211Z,21.9
2017-10-11T07:37:19.388Z,21.9
2017-10-11T07:39:19.521Z,21.9
2017-10-11T07:41:19.743Z,21.299999999999997
2017-10-11T07:43:19.768Z,21.9
2017-10-11T07:45:20.011Z,20.799999999999997
2017-10-11T07:47:20.017Z,21.9
2017-10-11T07:49:20.153Z,21.9
2017-10-11T07:51:20.406Z,21.9
2017-10-11T07:53:20.523Z,20.799999999999997
2017-10-11T07:55:21.476Z,21.9
2017-10-11T07:57:21.819Z,21.9
2017-10-11T07:59:20.904Z,21.9
2017-10-11T08:01:21.036Z,21.9
2017-10-11T08:03:21.306Z,21.299999999999997
2017-10-11T08:05:21.297Z,21.9
2017-10-11T08:07:21.452Z,20.799999999999997
2017-10-11T08:09:21.557Z,21.299999999999997
2017-10-11T08:11:21.697Z,21.299999999999997
2017-10-11T08:13:22.176Z,21.9
2017-10-11T08:15:22.264Z,21.299999999999997
2017-10-11T08:17:22.173Z,21.9
2017-10-11T08:19:22.277Z,21.9
2017-10-11T08:21:22.493Z,21.9
2017-10-11T08:23:22.521Z,21.9
2017-10-11T08:25:22.680Z,21.9
2017-10-11T08:27:22.810Z,21.9
2017-10-11T08:29:22.973Z,21.9
2017-10-11T08:31:23.162Z,21.9
2017-10-11T08:33:23.297Z,22.4
2017-10-11T08:35:23.433Z,22.4
2017-10-11T08:37:23.613Z,22.4
2017-10-11T08:39:23.901Z,21.9
2017-10-11T08:41:23.978Z,21.9
2017-10-11T08:43:24.099Z,21.9
2017-10-11T08:45:24.411Z,22.4
2017-10-11T08:47:24.474Z,21.9
2017-10-11T08:49:24.623Z,22.4
2017-10-11T08:51:24.770Z,22.4
2017-10-11T08:53:25.026Z,21.9
2017-10-11T08:55:26.204Z,22.4
2017-10-11T08:57:25.339Z,22.4
2017-10-11T08:59:25.565Z,22.4
2017-10-11T09:01:25.621Z,21.9
2017-10-11T09:03:25.754Z,22.9
2017-10-11T09:05:25.946Z,21.9
2017-10-11T09:07:26.165Z,22.4
2017-10-11T09:09:26.139Z,21.9
2017-10-11T09:11:26.279Z,21.9
2017-10-11T09:13:26.414Z,22.9
2017-10-11T09:15:26.545Z,22.4
2017-10-11T09:17:26.770Z,22.4
2017-10-11T09:19:27.038Z,22.9
2017-10-11T09:21:26.938Z,22.9
2017-10-11T09:23:27.256Z,22.9
2017-10-11T09:25:27.298Z,22.4
2017-10-11T09:27:27.393Z,22.9
2017-10-11T09:29:27.725Z,23.5
2017-10-11T09:31:28.059Z,23.5
2017-10-11T09:33:28.092Z,23.5
2017-10-11T09:35:28.509Z,22.9
2017-10-11T09:37:28.358Z,22.9
2017-10-11T09:39:28.465Z,23.5
2017-10-11T09:41:28.682Z,24
2017-10-11T09:43:28.840Z,22.9
2017-10-11T09:45:28.949Z,23.5
2017-10-11T09:47:29.154Z,23.5
2017-10-11T09:49:29.215Z,24
2017-10-11T09:51:29.337Z,24
2017-10-11T09:53:29.505Z,23.5
2017-10-11T09:55:29.576Z,22.9
2017-10-11T09:57:29.726Z,22.9
2017-10-11T09:59:29.821Z,24
2017-10-11T10:01:29.971Z,23.5
2017-10-11T10:03:30.088Z,23.5
2017-10-11T10:05:30.242Z,23.5
2017-10-11T10:07:30.331Z,23.5
2017-10-11T10:09:30.872Z,24
2017-10-11T10:11:30.702Z,22.9
2017-10-11T10:13:30.813Z,23.5
2017-10-11T10:15:30.997Z,22.9
2017-10-11T10:17:31.026Z,23.5
2017-10-11T10:19:31.169Z,23.5
2017-10-11T10:21:31.292Z,23.5
2017-10-11T10:23:31.369Z,23.5
2017-10-11T10:25:31.628Z,23.5
2017-10-11T10:27:32.506Z,24
2017-10-11T10:29:31.765Z,23.5
2017-10-11T10:31:31.925Z,23.5
2017-10-11T10:33:32.016Z,24
2017-10-11T10:35:32.132Z,24
2017-10-11T10:37:32.270Z,24
2017-10-11T10:39:32.432Z,24
2017-10-11T10:41:32.508Z,24
2017-10-11T10:43:32.598Z,24
2017-10-11T10:45:32.776Z,24
2017-10-11T10:47:32.860Z,24
2017-10-11T10:49:33.003Z,23.5
2017-10-11T10:51:33.250Z,24
2017-10-11T10:53:33.301Z,24
2017-10-11T10:55:33.414Z,24
2017-10-11T10:57:33.615Z,24
2017-10-11T10:59:33.612Z,23.5
2017-10-11T11:01:33.759Z,24
2017-10-11T11:03:33.993Z,24
2017-10-11T11:05:34.055Z,24.5
2017-10-11T11:07:34.243Z,24.5
2017-10-11T11:09:34.449Z,24
2017-10-11T11:11:34.580Z,24
2017-10-11T11:13:34.657Z,24
2017-10-11T11:15:34.792Z,24
2017-10-11T11:17:34.912Z,24
2017-10-11T11:19:35.011Z,24
2017-10-11T11:21:35.444Z,24
2017-10-11T11:23:35.387Z,24.5
2017-10-11T11:25:35.457Z,24
2017-10-11T11:27:35.738Z,24.5
2017-10-11T11:29:35.875Z,24
2017-10-11T11:31:36.040Z,24.5
2017-10-11T11:33:36.187Z,24.5
2017-10-11T11:35:36.476Z,24
2017-10-11T11:37:36.664Z,25.1
2017-10-11T11:39:36.847Z,25.1
2017-10-11T11:41:36.979Z,24.5
2017-10-11T11:43:37.101Z,24
2017-10-11T11:45:37.221Z,24.5
2017-10-11T11:47:37.351Z,24.5
2017-10-11T11:49:37.484Z,24.5
2017-10-11T11:51:37.612Z,24.5
2017-10-11T11:53:37.926Z,24.5
2017-10-11T11:55:37.871Z,24
2017-10-11T11:57:38.023Z,24.5
2017-10-11T11:59:38.147Z,24
2017-10-11T12:01:38.341Z,24
2017-10-11T12:03:38.577Z,24
2017-10-11T12:05:38.530Z,24
2017-10-11T12:07:38.676Z,24.5
2017-10-11T12:09:38.807Z,24
2017-10-11T12:11:38.915Z,24.5
2017-10-11T12:13:39.209Z,25.1
2017-10-11T12:15:39.372Z,25.1
2017-10-11T12:17:39.518Z,25.1
2017-10-11T12:19:39.625Z,24.5
2017-10-11T12:21:39.780Z,24.5
2017-10-11T12:23:39.854Z,24.5
2017-10-11T12:25:40.029Z,24.5
2017-10-11T12:27:40.170Z,24.5
2017-10-11T12:29:40.257Z,24.5
2017-10-11T12:31:40.383Z,25.1
2017-10-11T12:33:40.541Z,25.1
2017-10-11T12:35:40.629Z,25.1
2017-10-11T12:37:40.804Z,25.1
2017-10-11T12:39:41.078Z,25.1
2017-10-11T12:41:41.082Z,25.1
2017-10-11T12:43:41.251Z,24.5
2017-10-11T12:45:41.389Z,25.1
2017-10-11T12:47:41.493Z,25.1
2017-10-11T12:49:41.657Z,25.1
2017-10-11T12:51:41.903Z,24.5
2017-10-11T12:53:41.896Z,25.1
2017-10-11T12:55:42.065Z,25.1
2017-10-11T12:57:42.191Z,25.1
2017-10-11T12:59:42.291Z,25.1
2017-10-11T13:01:42.459Z,25.1
2017-10-11T13:03:42.622Z,25.1
2017-10-11T13:05:42.897Z,25.6
2017-10-11T13:07:42.867Z,25.1
2017-10-11T13:09:43.044Z,25.1
2017-10-11T13:11:43.156Z,25.1
2017-10-11T13:13:43.389Z,25.1
2017-10-11T13:15:46.508Z,25.1
2017-10-11T13:17:43.533Z,25.1
2017-10-11T13:19:43.790Z,25.1
2017-10-11T13:21:43.827Z,25.1
2017-10-11T13:23:43.983Z,25.1
2017-10-11T13:25:49.296Z,25.1
2017-10-11T13:27:44.377Z,25.1
2017-10-11T13:29:44.500Z,25.1
2017-10-11T13:31:44.614Z,25.1
2017-10-11T13:33:44.737Z,25.1
2017-10-11T13:35:46.067Z,25.1
2017-10-11T13:37:44.976Z,25.6
2017-10-11T13:39:45.096Z,25.1
2017-10-11T13:41:45.234Z,25.1
2017-10-11T13:43:45.357Z,25.1
2017-10-11T13:45:45.456Z,25.1
2017-10-11T13:47:45.579Z,25.1
2017-10-11T13:49:45.720Z,25.1
2017-10-11T13:51:46.016Z,25.1
2017-10-11T13:53:45.992Z,25.1
2017-10-11T13:55:46.149Z,24.5
2017-10-11T13:57:46.402Z,25.1
2017-10-11T13:59:46.555Z,25.1
2017-10-11T14:01:46.733Z,25.1
2017-10-11T14:03:46.951Z,25.1
2017-10-11T14:05:47.071Z,24.5
2017-10-11T14:07:47.188Z,25.1
2017-10-11T14:09:47.314Z,25.1
2017-10-11T14:11:47.416Z,24
2017-10-11T14:13:47.505Z,24.5
2017-10-11T14:15:47.674Z,24.5
2017-10-11T14:17:47.903Z,24.5
2017-10-11T14:19:47.903Z,25.1
2017-10-11T14:21:48.052Z,24.5
2017-10-11T14:23:48.170Z,24
2017-10-11T14:25:48.373Z,24.5
2017-10-11T14:27:48.508Z,24.5
2017-10-11T14:29:48.799Z,24.5
2017-10-11T14:31:48.784Z,24.5
2017-10-11T14:33:48.923Z,25.1
2017-10-11T14:35:49.075Z,24.5
2017-10-11T14:37:49.291Z,24
2017-10-11T14:39:49.422Z,24.5
2017-10-11T14:41:49.512Z,24
2017-10-11T14:43:49.695Z,24.5
2017-10-11T14:45:49.761Z,25.1
2017-10-11T14:47:49.907Z,24
2017-10-11T14:49:50.012Z,24.5
2017-10-11T14:51:50.295Z,24.5
2017-10-11T14:53:50.581Z,24
2017-10-11T14:55:50.581Z,25.1
2017-10-11T14:57:50.713Z,24.5
2017-10-11T14:59:50.855Z,25.1
2017-10-11T15:01:50.953Z,24
2017-10-11T15:03:51.074Z,24
2017-10-11T15:05:51.192Z,25.1
2017-10-11T15:07:51.301Z,25.1
2017-10-11T15:09:51.509Z,24.5
2017-10-11T15:11:51.550Z,24.5
2017-10-11T15:13:51.690Z,25.1
2017-10-11T15:15:52.073Z,24.5
2017-10-11T15:17:52.006Z,24
2017-10-11T15:19:52.089Z,24.5
2017-10-11T15:21:52.456Z,24
2017-10-11T15:23:52.368Z,24
2017-10-11T15:25:53.420Z,24
2017-10-11T15:27:52.729Z,24.5
2017-10-11T15:29:52.853Z,24
2017-10-11T15:31:52.953Z,24.5
2017-10-11T15:33:53.122Z,25.1
2017-10-11T15:35:53.369Z,24.5
2017-10-11T15:37:53.430Z,24.5
2017-10-11T15:39:53.543Z,24
2017-10-11T15:41:53.699Z,25.1
2017-10-11T15:43:53.961Z,24
2017-10-11T15:45:53.910Z,24
2017-10-11T15:47:54.091Z,25.1
2017-10-11T15:49:54.265Z,24.5
2017-10-11T15:51:54.358Z,24.5
2017-10-11T15:53:54.509Z,24
2017-10-11T15:55:54.603Z,24
2017-10-11T15:57:54.722Z,24
2017-10-11T15:59:54.889Z,25.1
2017-10-11T16:01:55.310Z,24
2017-10-11T16:03:55.230Z,24
2017-10-11T16:05:55.396Z,24
2017-10-11T16:07:55.493Z,24
2017-10-11T16:09:55.672Z,24
2017-10-11T16:11:55.754Z,25.1
2017-10-11T16:13:55.910Z,24
2017-10-11T16:15:56.135Z,24.5
2017-10-11T16:17:56.301Z,24
2017-10-11T16:19:56.726Z,24.5
2017-10-11T16:21:56.598Z,25.1
2017-10-11T16:23:56.736Z,24
2017-10-11T16:25:56.923Z,24.5
2017-10-11T16:27:57.052Z,25.1
2017-10-11T16:29:57.113Z,24
2017-10-11T16:31:57.236Z,24.5
2017-10-11T16:33:57.423Z,23.5
2017-10-11T16:35:57.495Z,24
2017-10-11T16:37:57.814Z,24.5
2017-10-11T16:39:57.893Z,24.5
2017-10-11T16:41:57.919Z,24
2017-10-11T16:43:58.074Z,24.5
2017-10-11T16:45:58.157Z,24
2017-10-11T16:47:58.379Z,24.5
2017-10-11T16:49:58.421Z,24
2017-10-11T16:51:58.830Z,24
2017-10-11T16:53:58.745Z,24
2017-10-11T16:55:58.879Z,23.5
2017-10-11T16:57:59.089Z,23.5
2017-10-11T16:59:59.115Z,24.5
2017-10-11T17:01:59.286Z,24
2017-10-11T17:03:59.419Z,24
2017-10-11T17:05:59.545Z,24
2017-10-11T17:07:59.681Z,24
2017-10-11T17:09:59.796Z,24
2017-10-11T17:11:59.898Z,24
2017-10-11T17:14:00.077Z,24
2017-10-11T17:16:00.200Z,23.5
2017-10-11T17:18:00.323Z,24
2017-10-11T17:20:00.450Z,24
2017-10-11T17:22:00.684Z,23.5
2017-10-11T17:24:00.769Z,23.5
2017-10-11T17:26:00.892Z,22.9
2017-10-11T17:28:01.122Z,23.5
2017-10-11T17:30:01.205Z,23.5
2017-10-11T17:32:01.298Z,22.9
2017-10-11T17:34:01.800Z,22.9
2017-10-11T17:36:01.779Z,23.5
2017-10-11T17:38:01.953Z,23.5
2017-10-11T17:40:02.501Z,23.5
2017-10-11T17:42:02.846Z,24
2017-10-11T17:44:02.990Z,23.5
2017-10-11T17:46:03.030Z,24
2017-10-11T17:48:03.169Z,23.5
2017-10-11T17:50:03.324Z,23.5
2017-10-11T17:52:03.453Z,23.5
2017-10-11T17:54:03.595Z,23.5
2017-10-11T17:56:03.750Z,24
2017-10-11T17:58:03.834Z,23.5
2017-10-11T18:00:03.943Z,23.5
2017-10-11T18:02:04.115Z,22.9
2017-10-11T18:04:04.300Z,23.5
2017-10-11T18:06:04.311Z,23.5
2017-10-11T18:08:04.514Z,22.9
2017-10-11T18:10:04.770Z,22.9
2017-10-11T18:12:04.726Z,23.5
2017-10-11T18:14:04.855Z,22.9
2017-10-11T18:16:04.979Z,22.9
2017-10-11T18:18:05.129Z,22.9
2017-10-11T18:20:05.254Z,23.5
2017-10-11T18:22:05.336Z,22.9
2017-10-11T18:24:05.729Z,22.9
2017-10-11T18:26:05.636Z,22.4
2017-10-11T18:28:05.780Z,23.5
2017-10-11T18:30:05.955Z,22.4
2017-10-11T18:32:06.164Z,22.9
2017-10-11T18:34:06.304Z,22.4
2017-10-11T18:36:06.366Z,22.4
2017-10-11T18:38:06.485Z,22.9
2017-10-11T18:40:06.652Z,22.9
2017-10-11T18:42:06.728Z,22.9
2017-10-11T18:44:06.873Z,22.9
2017-10-11T18:46:07.004Z,22.9
2017-10-11T18:48:07.346Z,22.9
2017-10-11T18:50:07.495Z,22.9
2017-10-11T18:52:07.385Z,22.9
2017-10-11T18:54:07.524Z,22.9
2017-10-11T18:56:07.658Z,22.9
2017-10-11T18:58:07.835Z,22.9
2017-10-11T19:00:08.006Z,22.9
2017-10-11T19:02:08.116Z,22.9
2017-10-11T19:04:08.267Z,22.9
2017-10-11T19:06:08.403Z,23.5
2017-10-11T19:08:08.533Z,22.9
2017-10-11T19:10:08.638Z,22.9
2017-10-11T19:12:08.748Z,22.9
2017-10-11T19:14:08.925Z,22.4
2017-10-11T19:16:09.032Z,22.4
2017-10-11T19:18:09.150Z,22.9
2017-10-11T19:20:09.228Z,22.9
2017-10-11T19:22:09.428Z,22.9
2017-10-11T19:24:09.548Z,22.9
2017-10-11T19:26:09.774Z,22.9
2017-10-11T19:28:09.819Z,22.9
2017-10-11T19:30:09.924Z,22.9
2017-10-11T19:32:10.330Z,22.9
2017-10-11T19:34:10.388Z,22.9
2017-10-11T19:36:10.453Z,22.9
2017-10-11T19:38:10.589Z,22.9
2017-10-11T19:40:10.719Z,22.9
2017-10-11T19:42:10.839Z,22.9
2017-10-11T19:44:10.964Z,22.4
2017-10-11T19:46:11.060Z,22.9
2017-10-11T19:48:11.253Z,22.9
2017-10-11T19:50:11.378Z,22.9
2017-10-11T19:52:11.512Z,22.9
2017-10-11T19:54:11.645Z,22.9
2017-10-11T19:56:11.740Z,22.9
2017-10-11T19:58:12.030Z,22.9
2017-10-11T20:00:12.098Z,22.9
2017-10-11T20:02:12.262Z,22.9
2017-10-11T20:04:12.465Z,22.9
2017-10-11T20:06:12.657Z,22.9
2017-10-11T20:08:12.763Z,21.9
2017-10-11T20:10:12.894Z,22.9
2017-10-11T20:12:13.003Z,22.9
2017-10-11T20:14:13.140Z,22.4
2017-10-11T20:16:13.279Z,22.9
2017-10-11T20:18:13.371Z,22.9
2017-10-11T20:20:13.563Z,22.9
2017-10-11T20:22:13.655Z,22.9
2017-10-11T20:24:13.951Z,22.9
2017-10-11T20:26:14.144Z,22.4
2017-10-11T20:28:14.144Z,22.9
2017-10-11T20:30:14.248Z,22.9
2017-10-11T20:32:14.383Z,22.9
2017-10-11T20:34:14.578Z,22.9
2017-10-11T20:36:14.651Z,22.9
2017-10-11T20:38:14.778Z,21.9
2017-10-11T20:40:15.177Z,21.9
2017-10-11T20:42:15.019Z,22.9
2017-10-11T20:44:15.171Z,21.9
2017-10-11T20:46:15.325Z,22.4
2017-10-11T20:48:15.488Z,22.9
2017-10-11T20:50:15.563Z,21.9
2017-10-11T20:52:15.810Z,22.4
2017-10-11T20:54:16.183Z,22.9
2017-10-11T20:56:16.243Z,21.9
2017-10-11T20:58:16.470Z,22.9
2017-10-11T21:00:16.473Z,22.9
2017-10-11T21:02:16.769Z,22.4
2017-10-11T21:04:16.836Z,22.4
2017-10-11T21:06:16.948Z,22.4
2017-10-11T21:08:17.241Z,21.9
2017-10-11T21:10:17.303Z,21.9
2017-10-11T21:12:17.437Z,22.4
2017-10-11T21:14:17.602Z,22.9
2017-10-11T21:16:17.692Z,21.9
2017-10-11T21:18:17.864Z,22.4
2017-10-11T21:20:17.974Z,22.9
2017-10-11T21:22:18.102Z,21.9
2017-10-11T21:24:18.279Z,22.9
2017-10-11T21:26:18.367Z,22.4
2017-10-11T21:28:18.547Z,22.4
2017-10-11T21:30:18.630Z,22.4
2017-10-11T21:32:18.799Z,22.4
2017-10-11T21:34:18.932Z,22.4
2017-10-11T21:36:19.041Z,21.9
2017-10-11T21:38:19.195Z,21.9
2017-10-11T21:40:19.290Z,22.4
2017-10-11T21:42:19.431Z,21.9
2017-10-11T21:44:19.587Z,22.9
2017-10-11T21:46:19.710Z,22.4
2017-10-11T21:48:19.841Z,21.9
2017-10-11T21:50:20.172Z,21.9
2017-10-11T21:52:20.367Z,21.9
2017-10-11T21:54:20.447Z,21.9
2017-10-11T21:56:20.601Z,21.9
2017-10-11T21:58:20.760Z,21.9
2017-10-11T22:00:20.888Z,21.9
2017-10-11T22:02:21.038Z,21.9
2017-10-11T22:04:21.173Z,21.9
2017-10-11T22:06:21.343Z,22.4
2017-10-11T22:08:21.468Z,21.9
2017-10-11T22:10:21.593Z,21.9
2017-10-11T22:12:21.807Z,20.799999999999997
2017-10-11T22:14:21.853Z,21.9
2017-10-11T22:16:21.997Z,21.299999999999997
2017-10-11T22:18:22.103Z,21.9
2017-10-11T22:20:22.240Z,21.9
2017-10-11T22:22:22.369Z,21.299999999999997
2017-10-11T22:24:22.505Z,21.9
2017-10-11T22:26:22.638Z,21.9
2017-10-11T22:28:22.734Z,21.299999999999997
2017-10-11T22:30:22.874Z,21.9
2017-10-11T22:32:23.049Z,21.9
2017-10-11T22:34:23.211Z,21.9
2017-10-11T22:36:23.297Z,21.9
2017-10-11T22:38:23.457Z,21.9
2017-10-11T22:40:23.581Z,21.299999999999997
2017-10-11T22:42:23.686Z,21.9
2017-10-11T22:44:23.868Z,21.9
2017-10-11T22:46:23.967Z,21.9
2017-10-11T22:48:24.095Z,21.299999999999997
2017-10-11T22:50:24.274Z,21.299999999999997
2017-10-11T22:52:24.340Z,21.9
2017-10-11T22:54:24.457Z,21.299999999999997
2017-10-11T22:56:24.626Z,21.9
2017-10-11T22:58:29.752Z,21.299999999999997
2017-10-11T23:00:24.991Z,21.299999999999997
2017-10-11T23:02:24.981Z,21.299999999999997
2017-10-11T23:04:25.267Z,21.9
2017-10-11T23:06:25.281Z,21.9
2017-10-11T23:08:25.444Z,21.299999999999997
2017-10-11T23:10:25.545Z,21.9
2017-10-11T23:12:25.635Z,21.299999999999997
2017-10-11T23:14:25.795Z,21.299999999999997